Time;durP1;ratioP1;P1;durP2;ratioP2;P2;SDS_P1;SDS_P2;PMS_P1;PMS_P2;Temp;Humidity;BMP_temperature;BMP_pressure;BME280_temperature;BME280_humidity;BME280_pressure;Samples;Min_cycle;Max_cycle;Signal;HPM_P1;HPM_P2
2023/10/03 00:00:13;;;;;;;8.70;3.70;;;;;;;18.07;51.72;101036.81;5052244;28;20021;-80
2023/10/03 00:02:39;;;;;;;11.48;4.43;;;;;;;17.87;49.51;101022.97;5032393;28;20726;-80
2023/10/03 00:05:07;;;;;;;12.77;4.55;;;;;;;17.81;50.27;101018.53;5061896;28;20025;-80
2023/10/03 00:07:33;;;;;;;8.70;4.38;;;;;;;18.02;52.64;101017.84;5052234;28;20028;-80
2023/10/03 00:09:59;;;;;;;10.63;4.60;;;;;;;17.68;52.18;101006.16;5070177;28;20032;-81
2023/10/03 00:12:25;;;;;;;10.57;4.93;;;;;;;17.91;53.60;101050.31;5072657;28;20865;-84
2023/10/03 00:14:51;;;;;;;12.00;4.28;;;;;;;17.53;52.16;101031.00;5058411;28;20753;-80
2023/10/03 00:17:16;;;;;;;8.68;3.50;;;;;;;17.70;53.15;101016.72;5050516;28;20029;-79
2023/10/03 00:19:41;;;;;;;12.82;4.50;;;;;;;17.64;52.40;101019.31;5051454;28;20029;-80
2023/10/03 00:22:07;;;;;;;8.02;3.90;;;;;;;17.51;53.49;101027.72;5052327;28;20462;-80
2023/10/03 00:24:32;;;;;;;8.88;4.00;;;;;;;17.36;51.09;101043.59;5056260;28;20020;-82
2023/10/03 00:26:59;;;;;;;12.73;4.50;;;;;;;17.00;52.73;101026.69;5060925;28;20032;-80
2023/10/03 00:29:29;;;;;;;10.48;4.05;;;;;;;17.51;53.68;101043.91;5062676;28;20031;-80
2023/10/03 00:31:58;;;;;;;10.57;4.13;;;;;;;17.46;54.73;101003.34;5042220;28;20461;-81
2023/10/03 00:34:23;;;;;;;10.18;3.45;;;;;;;17.44;53.22;101013.56;5052092;28;20473;-81
2023/10/03 00:36:50;;;;;;;9.18;3.50;;;;;;;17.75;53.09;101041.09;5053693;28;20017;-81
2023/10/03 00:39:17;;;;;;;9.75;3.85;;;;;;;16.84;54.06;101029.09;5063813;28;20024;-80
2023/10/03 00:41:44;;;;;;;7.85;3.33;;;;;;;17.24;55.43;101028.31;5052679;28;20130;-80
2023/10/03 00:44:10;;;;;;;8.52;3.60;;;;;;;17.63;55.19;101031.19;5050604;28;20132;-86
2023/10/03 00:46:35;;;;;;;8.35;3.50;;;;;;;17.60;54.78;101010.06;5067603;28;20024;-81
2023/10/03 00:49:09;;;;;;;10.07;3.88;;;;;;;17.27;55.14;101027.81;5055093;28;20044;-79
2023/10/03 00:51:35;;;;;;;10.25;3.83;;;;;;;18.22;53.06;101008.41;5056815;28;20032;-88
2023/10/03 00:54:02;;;;;;;10.73;4.38;;;;;;;18.04;53.70;101048.13;5051682;28;20033;-83
2023/10/03 00:56:28;;;;;;;11.68;4.50;;;;;;;17.79;53.64;101037.66;5068342;28;20029;-80
2023/10/03 00:58:53;;;;;;;9.63;5.25;;;;;;;17.44;54.85;101021.66;5056925;28;20596;-81
2023/10/03 01:01:19;;;;;;;17.13;6.68;;;;;;;16.91;53.49;101033.53;5069314;28;20024;-85
2023/10/03 01:03:47;;;;;;;11.93;5.20;;;;;;;16.82;56.24;101031.19;5050868;28;20379;-80
2023/10/03 01:06:15;;;;;;;13.73;6.22;;;;;;;16.57;55.95;101038.66;5069264;28;20067;-80
2023/10/03 01:08:47;;;;;;;16.88;5.88;;;;;;;16.02;56.33;101027.19;5055336;28;20569;-81
2023/10/03 01:11:15;;;;;;;11.15;5.65;;;;;;;15.97;55.68;101037.81;5030607;28;20088;-79
2023/10/03 01:13:56;;;;;;;;;;;;;;;15.91;55.75;101051.38;5049241;28;20048;-79
2023/10/03 01:16:31;;;;;;;19.95;8.55;;;;;;;15.67;56.46;101021.66;5064459;28;19918;-80
2023/10/03 01:19:08;;;;;;;14.32;6.18;;;;;;;16.09;59.49;101045.09;5058639;28;20028;-80
2023/10/03 01:21:34;;;;;;;13.98;5.90;;;;;;;16.59;57.54;101034.72;5055126;28;20478;-82
2023/10/03 01:24:04;;;;;;;24.65;11.20;;;;;;;16.21;56.65;101029.78;5054627;28;20086;-79
2023/10/03 01:26:32;;;;;;;16.65;8.65;;;;;;;16.68;57.94;101024.41;5071520;28;20097;-81
2023/10/03 01:28:58;;;;;;;;;;;;;;;16.37;55.45;101034.47;5073243;28;20086;-79
2023/10/03 01:31:24;;;;;;;12.45;5.45;;;;;;;15.89;59.47;101005.84;5055370;28;19920;-80
2023/10/03 01:33:50;;;;;;;14.93;6.00;;;;;;;16.17;58.46;101034.00;5054624;28;20029;-80
2023/10/03 01:36:17;;;;;;;12.10;5.40;;;;;;;15.91;58.79;101002.94;5065221;28;20027;-83
2023/10/03 01:38:43;;;;;;;11.45;5.07;;;;;;;16.57;59.03;101009.06;5058059;28;20025;-80
2023/10/03 01:41:08;;;;;;;10.90;4.78;;;;;;;16.92;57.00;101024.38;5056836;28;20063;-80
2023/10/03 01:43:36;;;;;;;13.10;4.82;;;;;;;-145.33;100.00;60416.63;5054458;28;20047;-80
2023/10/03 01:46:03;;;;;;;10.15;5.07;;;;;;;17.18;55.22;101010.38;5062075;28;20034;-79
2023/10/03 01:48:29;;;;;;;11.65;5.38;;;;;;;16.77;56.76;101033.75;5060713;28;20480;-80
2023/10/03 01:50:55;;;;;;;12.30;6.85;;;;;;;16.43;56.97;101006.63;5057395;28;20035;-85
2023/10/03 01:53:23;;;;;;;10.18;4.75;;;;;;;16.39;57.71;101023.47;5052782;28;20025;-80
2023/10/03 01:55:49;;;;;;;12.55;4.53;;;;;;;16.51;58.42;101034.22;5058412;28;20075;-81
2023/10/03 01:58:15;;;;;;;11.82;4.80;;;;;;;16.38;58.37;101014.56;5072655;28;20040;-81
2023/10/03 02:00:40;;;;;;;10.00;4.53;;;;;;;16.31;57.18;101035.41;5064117;28;20418;-80
2023/10/03 02:03:12;;;;;;;11.27;4.53;;;;;;;16.62;56.93;101028.84;5054085;28;20024;-79
2023/10/03 02:05:39;;;;;;;9.02;4.55;;;;;;;16.10;58.79;101034.09;5055109;28;20089;-81
2023/10/03 02:08:18;;;;;;;10.18;4.30;;;;;;;14.93;61.82;101019.13;5067157;28;20029;-82
2023/10/03 02:10:44;;;;;;;12.23;4.80;;;;;;;15.61;60.14;101007.28;5056752;28;20013;-80
2023/10/03 02:13:21;;;;;;;11.93;4.90;;;;;;;15.57;62.00;101019.56;5062776;28;20641;-79
2023/10/03 02:15:48;;;;;;;12.27;4.60;;;;;;;16.09;59.89;101042.41;5070318;28;20031;-81
2023/10/03 02:18:18;;;;;;;10.77;4.35;;;;;;;16.43;58.91;101038.13;5066812;28;20025;-80
2023/10/03 02:20:51;;;;;;;10.23;4.40;;;;;;;16.50;58.38;101036.09;5057310;28;20048;-79
2023/10/03 02:23:24;;;;;;;11.45;4.88;;;;;;;16.14;58.31;101029.06;5053723;28;20040;-79
2023/10/03 02:25:52;;;;;;;9.95;4.85;;;;;;;15.68;60.10;101026.81;5057821;28;20077;-83
2023/10/03 02:28:18;;;;;;;10.75;4.55;;;;;;;15.48;62.64;101042.41;5058912;28;20473;-80
2023/10/03 02:30:44;;;;;;;13.13;4.30;;;;;;;15.50;62.95;101048.38;5067365;28;20021;-82
2023/10/03 02:33:17;;;;;;;11.27;5.00;;;;;;;16.11;61.90;101035.72;5053427;28;20443;-80
2023/10/03 02:35:46;;;;;;;14.00;5.50;;;;;;;16.19;61.35;101042.66;5052150;28;20033;-84
2023/10/03 02:38:24;;;;;;;12.68;5.65;;;;;;;16.64;58.69;101042.06;5053665;28;20044;-80
2023/10/03 02:41:02;;;;;;;16.25;5.72;;;;;;;16.74;59.33;101053.09;5060822;28;20173;-80
2023/10/03 02:43:28;;;;;;;;;;;;;;;16.79;59.38;101053.19;5066715;28;20128;-84
2023/10/03 02:45:53;;;;;;;11.88;4.22;;;;;;;17.04;58.59;101055.66;5053389;28;19975;-82
2023/10/03 02:48:20;;;;;;;10.73;4.55;;;;;;;16.69;57.55;101017.94;5072492;28;20137;-79
2023/10/03 02:50:47;;;;;;;9.73;4.53;;;;;;;16.83;57.04;101027.44;5065744;28;20032;-84
2023/10/03 02:53:20;;;;;;;10.38;5.03;;;;;;;16.56;58.89;101039.75;5062764;28;20067;-80
2023/10/03 02:55:50;;;;;;;12.73;4.82;;;;;;;16.47;59.55;101033.91;5053176;28;20112;-79
2023/10/03 02:58:22;;;;;;;12.23;4.68;;;;;;;16.29;59.76;101042.09;5070520;28;20033;-80
2023/10/03 03:00:55;;;;;;;10.38;4.30;;;;;;;16.04;59.53;101008.13;5043813;28;20067;-82
2023/10/03 03:03:29;;;;;;;11.15;4.72;;;;;;;16.23;60.31;101044.63;5053326;28;20056;-80
2023/10/03 03:05:54;;;;;;;11.77;4.88;;;;;;;15.65;62.09;101021.91;5054179;28;20024;-79
2023/10/03 03:11:00;;;;;;;12.88;4.68;;;;;;;16.72;59.48;101049.00;5055129;28;20108;-80
2023/10/03 03:13:28;;;;;;;12.02;4.45;;;;;;;16.73;59.61;101047.91;5070487;28;20088;-81
2023/10/03 03:16:01;;;;;;;12.02;4.95;;;;;;;16.47;60.17;101018.56;5053286;28;20033;-80
2023/10/03 03:18:31;;;;;;;9.48;4.72;;;;;;;16.56;60.07;101047.81;5067129;28;20025;-83
2023/10/03 03:21:01;;;;;;;9.70;4.70;;;;;;;16.52;60.04;101058.22;5068900;28;20478;-79
2023/10/03 03:23:31;;;;;;;10.82;4.43;;;;;;;16.66;59.66;101048.88;5062540;28;20609;-78
2023/10/03 03:28:44;;;;;;;10.85;5.28;;;;;;;16.87;59.83;101050.16;5032944;28;20044;-82
2023/10/03 03:31:25;;;;;;;11.07;5.25;;;;;;;17.46;57.27;101049.19;5053608;28;20036;-79
2023/10/03 03:33:58;;;;;;;11.07;5.22;;;;;;;17.20;57.48;101054.09;5052664;28;20589;-82
2023/10/03 03:36:29;;;;;;;10.57;5.00;;;;;;;16.57;59.73;101042.22;5051490;28;20029;-79
2023/10/03 03:38:58;;;;;;;11.13;5.40;;;;;;;16.58;60.84;101034.94;5066858;28;20406;-80
2023/10/03 03:41:23;;;;;;;11.38;5.03;;;;;;;16.73;60.59;101054.13;5053852;28;20036;-80
2023/10/03 03:43:49;;;;;;;9.68;4.70;;;;;;;16.80;59.48;101035.97;5061709;28;20032;-80
2023/10/03 03:46:17;;;;;;;13.15;5.35;;;;;;;16.43;60.15;101011.19;5052432;28;20029;-81
2023/10/03 03:48:43;;;;;;;8.35;4.63;;;;;;;16.72;60.21;101049.81;5051607;28;20819;-79
2023/10/03 03:51:11;;;;;;;12.88;5.00;;;;;;;16.43;60.61;101005.81;5054967;28;20091;-81
2023/10/03 03:53:37;;;;;;;;;;;;;;;16.66;60.68;101053.44;5049597;28;20032;-81
2023/10/03 03:56:07;;;;;;;10.02;4.80;;;;;;;16.47;60.79;101042.78;5071566;28;20287;-80
2023/10/03 03:58:40;;;;;;;9.55;3.97;;;;;;;16.46;60.63;101037.63;5067679;28;20036;-80
2023/10/03 04:01:14;;;;;;;14.63;5.40;;;;;;;16.20;61.36;101038.91;5053195;28;20037;-81
2023/10/03 04:03:43;;;;;;;12.70;4.70;;;;;;;16.34;61.00;101048.38;5051285;28;20441;-82
2023/10/03 04:06:12;;;;;;;11.60;4.78;;;;;;;16.31;60.81;101040.78;5050963;28;20033;-80
2023/10/03 04:08:40;;;;;;;12.25;4.25;;;;;;;15.40;63.33;101018.53;5049463;28;20826;-81
2023/10/03 04:11:08;;;;;;;9.13;4.13;;;;;;;15.77;63.07;101050.72;5051303;28;20029;-79
2023/10/03 04:13:49;;;;;;;9.25;4.20;;;;;;;15.88;62.11;101039.19;5068177;28;20037;-79
2023/10/03 04:16:22;;;;;;;11.90;4.28;;;;;;;15.96;59.83;101049.63;5052431;28;20474;-80
2023/10/03 04:18:50;;;;;;;8.90;4.25;;;;;;;15.57;62.59;101043.75;5049534;28;20494;-80
2023/10/03 04:21:16;;;;;;;9.98;3.72;;;;;;;16.32;61.06;101036.22;5050541;28;20387;-80
2023/10/03 04:23:44;;;;;;;11.48;3.95;;;;;;;16.35;60.17;101047.34;5052894;28;20287;-81
2023/10/03 04:26:10;;;;;;;16.00;4.38;;;;;;;16.19;60.34;101034.59;5050047;28;20040;-80
2023/10/03 04:28:36;;;;;;;11.68;4.50;;;;;;;15.35;62.21;100995.03;5058454;28;20024;-84
2023/10/03 04:31:01;;;;;;;11.68;4.25;;;;;;;16.25;60.85;101047.09;5054752;28;20048;-80
2023/10/03 04:33:27;;;;;;;11.82;4.72;;;;;;;15.40;60.66;101029.28;5059954;28;20425;-80
2023/10/03 04:35:52;;;;;;;14.50;4.35;;;;;;;15.68;61.99;101060.97;5062070;28;20832;-84
2023/10/03 04:38:18;;;;;;;13.77;4.70;;;;;;;15.34;62.51;101046.31;5065652;28;20070;-80
2023/10/03 04:40:47;;;;;;;12.30;4.45;;;;;;;15.13;61.47;101026.94;5059889;28;20029;-80
2023/10/03 04:43:14;;;;;;;14.43;5.13;;;;;;;15.15;63.29;101040.97;5052841;28;20405;-80
2023/10/03 04:45:40;;;;;;;19.83;5.32;;;;;;;15.21;63.30;101056.19;5049588;28;20033;-79
2023/10/03 04:48:07;;;;;;;14.13;4.45;;;;;;;15.15;63.99;101062.47;5049015;28;20049;-80
2023/10/03 04:50:35;;;;;;;10.82;5.00;;;;;;;15.35;62.29;101080.22;5048407;28;20029;-82
2023/10/03 04:53:02;;;;;;;24.27;8.68;;;;;;;15.08;61.98;101048.31;5059549;28;20055;-80
2023/10/03 04:55:27;;;;;;;23.13;7.82;;;;;;;15.46;63.92;101079.47;5069037;28;20041;-86
2023/10/03 04:57:54;;;;;;;13.75;5.45;;;;;;;16.09;61.99;101083.56;5066118;28;20482;-79
2023/10/03 05:00:21;;;;;;;15.85;5.15;;;;;;;16.20;60.70;101087.34;5049046;28;20030;-80
2023/10/03 05:02:48;;;;;;;10.93;5.03;;;;;;;15.61;60.99;101063.75;5049243;28;20020;-80
2023/10/03 05:05:14;;;;;;;18.90;5.07;;;;;;;15.67;63.72;101088.91;5049128;28;20607;-81
2023/10/03 05:07:39;;;;;;;14.20;4.90;;;;;;;15.64;63.32;101065.97;5048211;28;20132;-81
2023/10/03 05:10:06;;;;;;;11.48;4.43;;;;;;;15.80;64.14;101082.56;5049437;28;20036;-80
2023/10/03 05:12:32;;;;;;;9.45;4.78;;;;;;;15.64;62.94;101041.78;5049189;28;20025;-81
2023/10/03 05:14:57;;;;;;;11.25;4.18;;;;;;;16.01;62.26;101073.16;5048928;28;20031;-80
2023/10/03 05:17:26;;;;;;;11.48;5.00;;;;;;;15.85;62.29;101058.47;5049058;28;20044;-81
2023/10/03 05:19:53;;;;;;;9.43;5.45;;;;;;;16.21;63.47;101076.34;5049350;28;20029;-79
2023/10/03 05:22:18;;;;;;;11.30;5.30;;;;;;;16.21;62.73;101072.84;5047616;28;20417;-81
2023/10/03 05:24:44;;;;;;;11.07;5.13;;;;;;;16.33;63.02;101072.88;5054049;28;20025;-81
2023/10/03 05:27:09;;;;;;;16.58;5.70;;;;;;;16.29;60.90;101083.28;5051151;28;20025;-81
2023/10/03 05:29:36;;;;;;;9.15;4.82;;;;;;;15.95;62.76;101085.63;5047882;28;20500;-81
2023/10/03 05:32:02;;;;;;;13.57;5.38;;;;;;;15.80;62.88;101087.94;5060698;28;20032;-79
2023/10/03 05:34:30;;;;;;;11.25;5.13;;;;;;;16.01;62.19;101095.47;5049839;28;20119;-80
2023/10/03 05:36:55;;;;;;;10.45;5.30;;;;;;;15.97;62.65;101110.44;5062536;28;20457;-80
2023/10/03 05:39:22;;;;;;;14.65;5.28;;;;;;;15.95;63.15;101096.41;5064396;28;20551;-83
2023/10/03 05:41:47;;;;;;;10.13;4.70;;;;;;;15.96;62.31;101098.06;5058073;28;20025;-84
2023/10/03 05:44:13;;;;;;;14.50;5.22;;;;;;;16.32;61.10;101090.88;5052776;28;20037;-80
2023/10/03 05:46:44;;;;;;;10.73;5.18;;;;;;;16.23;62.33;101113.81;5048539;28;20031;-82
2023/10/03 05:49:10;;;;;;;12.40;5.10;;;;;;;16.09;62.92;101102.41;5050206;28;20383;-80
2023/10/03 05:51:36;;;;;;;15.40;5.40;;;;;;;16.90;61.73;101097.38;5056774;28;20497;-80
2023/10/03 05:54:05;;;;;;;11.77;5.00;;;;;;;17.15;60.22;101105.19;5058210;28;20048;-81
2023/10/03 05:56:31;;;;;;;12.80;6.38;;;;;;;16.87;60.16;101108.59;5049250;28;20025;-79
2023/10/03 05:58:59;;;;;;;18.48;6.25;;;;;;;16.96;63.20;101109.91;5049544;28;20032;-86
2023/10/03 06:01:24;;;;;;;;;;;;;;;17.23;61.31;101118.31;5049758;28;20060;-81
2023/10/03 06:03:49;;;;;;;16.70;5.25;;;;;;;17.41;60.99;101103.03;5050006;28;19948;-80
2023/10/03 06:06:15;;;;;;;12.15;5.32;;;;;;;17.92;60.82;101114.84;5052432;28;20061;-78
2023/10/03 06:08:40;;;;;;;12.23;5.63;;;;;;;17.98;56.88;101134.59;5053382;28;20716;-82
2023/10/03 06:11:06;;;;;;;17.95;5.32;;;;;;;18.33;58.80;101103.91;5052806;28;20099;-79
2023/10/03 06:13:31;;;;;;;13.18;5.30;;;;;;;18.03;56.42;101123.91;5054852;28;20028;-81
2023/10/03 06:16:00;;;;;;;12.15;5.47;;;;;;;18.03;59.55;101113.94;5063010;28;20028;-80
2023/10/03 06:18:28;;;;;;;11.52;5.80;;;;;;;18.04;57.55;101139.03;5052938;28;20024;-79
2023/10/03 06:20:56;;;;;;;11.60;5.47;;;;;;;17.83;56.18;101103.59;5066383;28;20032;-79
2023/10/03 06:23:22;;;;;;;13.77;5.95;;;;;;;17.84;56.23;101134.09;5070970;28;20033;-80
2023/10/03 06:25:47;;;;;;;12.48;5.88;;;;;;;17.71;59.14;101134.34;5053208;28;20083;-79
2023/10/03 06:28:13;;;;;;;11.05;5.82;;;;;;;18.20;57.78;101137.44;5051814;28;20025;-79
2023/10/03 06:30:38;;;;;;;12.57;6.55;;;;;;;18.07;56.15;101117.78;5051752;28;20032;-78
2023/10/03 06:33:05;;;;;;;11.45;5.50;;;;;;;18.30;57.90;101142.19;5051982;28;20414;-82
2023/10/03 06:35:34;;;;;;;10.82;5.18;;;;;;;18.44;55.89;101155.13;5046106;28;20044;-80
2023/10/03 06:37:59;;;;;;;14.23;7.03;;;;;;;18.42;55.01;101138.34;5050920;28;20115;-81
2023/10/03 06:40:25;;;;;;;10.60;5.25;;;;;;;18.58;55.63;101150.25;5050935;28;20186;-78
2023/10/03 06:42:50;;;;;;;15.52;6.20;;;;;;;18.48;54.99;101145.47;5052682;28;20068;-79
2023/10/03 06:45:16;;;;;;;15.02;5.70;;;;;;;18.65;55.86;101150.06;5054232;28;20466;-79
2023/10/03 06:47:42;;;;;;;12.38;5.38;;;;;;;18.80;55.95;101150.34;5052349;28;20041;-79
2023/10/03 06:50:08;;;;;;;15.98;6.43;;;;;;;18.75;55.65;101155.63;5051490;28;20029;-84
2023/10/03 06:52:35;;;;;;;14.27;5.83;;;;;;;18.98;55.10;101141.16;5050584;28;20083;-80
2023/10/03 06:55:03;;;;;;;15.25;5.63;;;;;;;19.02;54.46;101139.59;5051597;28;20064;-80
2023/10/03 06:57:29;;;;;;;12.93;5.30;;;;;;;18.97;53.88;101144.91;5051118;28;20032;-81
2023/10/03 06:59:54;;;;;;;9.68;4.88;;;;;;;19.15;53.30;101143.00;5051430;28;20104;-81
2023/10/03 07:02:20;;;;;;;10.75;5.30;;;;;;;19.23;53.17;101148.78;5049855;28;20025;-78
2023/10/03 07:04:46;;;;;;;11.50;4.80;;;;;;;19.27;53.73;101141.00;5057320;28;20079;-79
2023/10/03 07:07:12;;;;;;;12.90;5.38;;;;;;;19.35;52.70;101134.31;5051327;28;20053;-79
2023/10/03 07:09:40;;;;;;;14.82;6.03;;;;;;;19.47;52.40;101135.00;5052209;28;20138;-80
2023/10/03 07:12:09;;;;;;;15.02;5.45;;;;;;;19.84;51.45;101167.69;5051575;28;20024;-80
2023/10/03 07:14:35;;;;;;;10.88;4.82;;;;;;;19.82;50.69;101123.81;5055010;28;20446;-83
2023/10/03 07:17:02;;;;;;;14.15;5.28;;;;;;;19.91;50.78;101156.66;5048747;28;20025;-80
2023/10/03 07:19:31;;;;;;;10.98;4.32;;;;;;;20.34;49.89;101165.75;5052319;28;20029;-78
2023/10/03 07:21:57;;;;;;;13.25;5.43;;;;;;;20.24;49.52;101154.81;5051347;28;20128;-86
2023/10/03 07:24:24;;;;;;;15.73;4.70;;;;;;;20.34;47.99;101160.31;5050684;28;20033;-81
2023/10/03 07:26:51;;;;;;;9.68;4.30;;;;;;;20.54;48.09;101167.00;5050932;28;20096;-79
2023/10/03 07:29:17;;;;;;;11.18;4.15;;;;;;;20.36;48.44;101143.81;5050501;28;20025;-79
2023/10/03 07:31:43;;;;;;;10.98;4.38;;;;;;;20.22;48.07;101135.31;5053356;28;20029;-79
2023/10/03 07:34:09;;;;;;;10.75;4.30;;;;;;;20.65;46.48;101155.19;5050871;28;20047;-80
2023/10/03 07:36:34;;;;;;;13.30;4.53;;;;;;;20.85;47.37;101160.75;5063542;28;20120;-81
2023/10/03 07:39:00;;;;;;;10.77;4.63;;;;;;;21.12;45.92;101153.59;5066257;28;20035;-79
2023/10/03 07:41:27;;;;;;;9.50;3.97;;;;;;;21.05;47.30;101153.84;5067351;28;20028;-82
2023/10/03 07:43:52;;;;;;;8.88;4.45;;;;;;;20.85;47.86;101154.53;5057946;28;20454;-80
2023/10/03 07:46:22;;;;;;;10.10;4.40;;;;;;;20.87;46.60;101142.34;5063119;28;20047;-79
2023/10/03 07:48:52;;;;;;;8.35;4.15;;;;;;;21.21;46.11;101160.97;5051096;28;20068;-80
2023/10/03 07:51:18;;;;;;;14.57;4.90;;;;;;;20.74;47.59;101142.81;5051998;28;20035;-81
2023/10/03 07:53:43;;;;;;;9.10;3.67;;;;;;;20.85;46.34;101155.34;5057651;28;20036;-80
2023/10/03 07:56:25;;;;;;;10.38;4.13;;;;;;;20.87;45.86;101147.75;5060796;28;20554;-79
2023/10/03 07:58:53;;;;;;;10.07;3.80;;;;;;;21.28;43.51;101161.56;5041746;28;20067;-80
2023/10/03 08:01:26;;;;;;;9.40;3.65;;;;;;;21.10;45.01;101155.75;5050972;28;20477;-79
2023/10/03 08:03:53;;;;;;;9.23;4.20;;;;;;;21.31;45.01;101132.25;5058456;28;20032;-81
2023/10/03 08:06:23;;;;;;;11.10;3.95;;;;;;;22.04;41.60;101156.69;5056757;28;20480;-81
2023/10/03 08:08:52;;;;;;;10.20;3.90;;;;;;;22.18;41.41;101165.13;5051301;28;20021;-80
2023/10/03 08:11:21;;;;;;;10.85;4.07;;;;;;;22.07;42.46;101154.25;5050922;28;20025;-85
2023/10/03 08:13:49;;;;;;;10.93;4.22;;;;;;;22.09;40.83;101167.56;5051465;28;20040;-80
2023/10/03 08:16:14;;;;;;;;;;;;;;;22.04;42.49;101164.81;5059600;28;20035;-81
2023/10/03 08:18:46;;;;;;;12.88;4.30;;;;;;;21.74;43.67;101122.13;5062442;28;19913;-80
2023/10/03 08:21:12;;;;;;;12.50;4.22;;;;;;;22.46;42.13;101161.91;5050901;28;20471;-80
2023/10/03 08:23:38;;;;;;;9.18;3.80;;;;;;;22.61;42.54;101152.13;5065566;28;20122;-80
2023/10/03 08:26:03;;;;;;;10.93;3.60;;;;;;;22.36;42.56;101151.03;5053813;28;20029;-85
2023/10/03 08:28:31;;;;;;;12.63;3.97;;;;;;;22.10;40.67;101141.22;5049999;28;20435;-81
2023/10/03 08:31:05;;;;;;;9.90;3.85;;;;;;;22.10;40.80;101147.44;5050527;28;20033;-81
2023/10/03 08:33:36;;;;;;;10.07;3.50;;;;;;;22.18;41.28;101117.03;5049191;28;20480;-81
2023/10/03 08:36:14;;;;;;;8.63;3.47;;;;;;;22.32;40.04;101154.59;5054769;28;20032;-80
2023/10/03 08:38:43;;;;;;;12.15;3.67;;;;;;;22.92;37.44;101141.19;5065826;28;20057;-84
2023/10/03 08:41:12;;;;;;;8.55;3.75;;;;;;;23.15;37.98;101146.09;5050599;28;20033;-83
2023/10/03 08:43:38;;;;;;;10.05;3.17;;;;;;;23.05;37.07;101151.56;5066151;28;20092;-81
2023/10/03 08:46:09;;;;;;;9.55;4.07;;;;;;;22.64;37.73;101129.84;5067066;28;21263;-81
2023/10/03 08:48:43;;;;;;;11.25;4.20;;;;;;;23.19;38.79;101141.72;5050042;28;20052;-81
2023/10/03 08:51:13;;;;;;;10.73;4.00;;;;;;;23.24;37.50;101143.59;5050697;28;20124;-80
2023/10/03 08:53:41;;;;;;;12.43;3.58;;;;;;;22.72;37.13;101152.91;5053255;28;20490;-80
2023/10/03 08:56:08;;;;;;;10.80;3.78;;;;;;;22.73;37.07;101133.63;5063505;28;20021;-80
2023/10/03 08:58:34;;;;;;;11.18;3.78;;;;;;;23.03;37.30;101137.41;5050891;28;20057;-80
2023/10/03 09:01:02;;;;;;;12.80;3.80;;;;;;;22.99;37.68;101142.56;5049673;28;20063;-81
2023/10/03 09:03:29;;;;;;;10.05;3.65;;;;;;;22.94;37.95;101115.34;5064191;28;20028;-81
2023/10/03 09:05:58;;;;;;;9.73;3.90;;;;;;;23.65;37.43;101125.16;5064784;28;20071;-80
2023/10/03 09:08:26;;;;;;;9.73;4.53;;;;;;;23.05;35.39;101127.88;5069395;28;20036;-85
2023/10/03 09:10:55;;;;;;;8.95;3.38;;;;;;;23.40;36.50;101141.63;5050519;28;20051;-82
2023/10/03 09:13:27;;;;;;;8.65;3.72;;;;;;;23.68;36.94;101131.97;5061189;28;20033;-81
2023/10/03 09:16:00;;;;;;;11.65;3.97;;;;;;;23.32;36.10;101129.41;5052410;28;20502;-81
2023/10/03 09:18:31;;;;;;;15.38;4.22;;;;;;;23.74;35.58;101140.91;5067418;28;20032;-83
2023/10/03 09:20:59;;;;;;;14.07;4.45;;;;;;;24.04;35.17;101150.84;5051325;28;20498;-81
2023/10/03 09:23:27;;;;;;;11.32;4.13;;;;;;;24.18;34.64;101123.78;5049845;28;20801;-82
2023/10/03 09:25:55;;;;;;;8.68;3.55;;;;;;;24.11;34.16;101107.75;5063600;28;20028;-82
2023/10/03 09:28:35;;;;;;;7.18;3.90;;;;;;;24.10;36.64;101118.94;5049581;28;20052;-80
2023/10/03 09:31:08;;;;;;;9.13;4.25;;;;;;;24.58;34.93;101135.44;5050037;28;20040;-81
2023/10/03 09:33:38;;;;;;;10.43;4.50;;;;;;;24.20;35.08;101116.13;5049958;28;20029;-82
2023/10/03 09:36:05;;;;;;;10.82;4.47;;;;;;;23.54;36.34;101118.16;5065803;28;20036;-81
2023/10/03 09:38:45;;;;;;;9.07;3.97;;;;;;;24.11;35.18;101117.81;5050135;28;20072;-81
2023/10/03 09:41:17;;;;;;;9.02;4.35;;;;;;;24.24;33.94;101117.19;5071596;28;20031;-81
2023/10/03 09:43:47;;;;;;;11.85;4.57;;;;;;;23.97;35.66;101115.75;5059037;28;20047;-82
2023/10/03 09:46:14;;;;;;;10.20;4.35;;;;;;;24.16;35.56;101109.63;5054478;28;20047;-81
2023/10/03 09:48:39;;;;;;;10.98;4.38;;;;;;;24.29;36.24;101111.66;5057495;28;20132;-81
2023/10/03 09:51:08;;;;;;;12.55;4.50;;;;;;;24.70;33.24;101096.88;5054122;28;20116;-83
2023/10/03 09:53:34;;;;;;;8.55;3.83;;;;;;;24.46;33.70;101119.44;5063043;28;20108;-82
2023/10/03 09:56:00;;;;;;;11.52;4.78;;;;;;;24.11;36.03;101068.75;5060800;28;20090;-84
2023/10/03 09:58:31;;;;;;;8.85;4.38;;;;;;;24.90;33.66;101098.56;5057100;28;20489;-84
2023/10/03 10:00:58;;;;;;;8.95;4.43;;;;;;;24.78;33.63;101077.97;5054169;28;20083;-80
2023/10/03 10:03:33;;;;;;;11.10;4.80;;;;;;;24.96;32.76;101089.22;5056821;28;20028;-82
2023/10/03 10:06:37;;;;;;;10.05;4.30;;;;;;;25.31;31.99;101106.31;5053545;28;20029;-85
2023/10/03 10:09:23;;;;;;;9.48;4.32;;;;;;;25.52;31.45;101088.56;5061147;28;20031;-83
2023/10/03 10:12:19;;;;;;;12.10;4.10;;;;;;;25.77;32.54;101094.75;5054234;28;20028;-84
2023/10/03 10:15:01;;;;;;;10.65;4.13;;;;;;;25.73;31.65;101101.91;5045797;28;20037;-84
2023/10/03 10:17:51;;;;;;;11.60;4.68;;;;;;;25.96;31.75;101095.56;5044119;28;20687;-83
2023/10/03 10:20:32;;;;;;;11.27;4.38;;;;;;;26.46;31.80;101076.69;5057501;28;20452;-82
2023/10/03 10:22:58;;;;;;;12.55;4.47;;;;;;;26.25;30.86;101087.19;5073305;28;20032;-83
2023/10/03 10:25:25;;;;;;;9.80;4.75;;;;;;;25.23;30.35;101081.28;5052906;28;20766;-83
2023/10/03 10:28:01;;;;;;;12.88;4.63;;;;;;;25.31;30.54;101062.63;5060813;28;20028;-84
2023/10/03 10:30:26;;;;;;;10.88;4.55;;;;;;;25.05;31.29;101071.13;5057892;28;20103;-84
2023/10/03 10:33:14;;;;;;;9.23;4.30;;;;;;;25.52;30.66;101074.91;5052004;28;20451;-83
2023/10/03 10:36:12;;;;;;;9.65;4.10;;;;;;;24.97;31.78;101067.13;5041001;28;20509;-83
2023/10/03 10:38:49;;;;;;;8.40;4.15;;;;;;;25.16;31.37;101058.16;5053347;28;20406;-83
2023/10/03 10:41:17;;;;;;;10.43;3.90;;;;;;;25.87;31.54;101064.53;5053302;28;20040;-83
2023/10/03 10:44:16;;;;;;;10.40;3.83;;;;;;;25.86;29.89;101060.97;5076001;28;20074;-84
2023/10/03 10:46:47;;;;;;;11.73;3.95;;;;;;;24.93;31.23;101054.31;5070719;28;20104;-84
2023/10/03 10:49:34;;;;;;;7.90;3.70;;;;;;;25.13;31.91;101040.44;5068632;28;20025;-85
2023/10/03 10:52:06;;;;;;;9.90;4.13;;;;;;;25.09;31.60;101033.97;5066300;28;20033;-84
2023/10/03 10:54:38;;;;;;;9.05;3.72;;;;;;;25.49;30.63;101029.06;5061744;28;20496;-85
2023/10/03 10:57:05;;;;;;;10.48;4.75;;;;;;;25.81;30.49;101017.34;5061826;28;20056;-83
2023/10/03 10:59:32;;;;;;;8.82;3.90;;;;;;;25.90;29.29;101039.38;5062995;28;20049;-84
2023/10/03 11:02:01;;;;;;;15.55;4.78;;;;;;;26.14;29.29;101032.97;5063511;28;20037;-85
2023/10/03 11:04:29;;;;;;;11.23;4.20;;;;;;;26.59;29.11;101019.59;5060081;28;20021;-85
2023/10/03 11:06:54;;;;;;;;;;;;;;;26.91;30.06;101034.25;5059871;28;20058;-86
2023/10/03 11:09:20;;;;;;;10.38;4.43;;;;;;;26.06;29.42;101039.94;5057042;28;19936;-83
2023/10/03 11:11:47;;;;;;;10.30;4.60;;;;;;;26.00;29.45;101025.53;5064667;28;20029;-84
2023/10/03 11:14:33;;;;;;;8.57;4.00;;;;;;;26.55;29.35;101013.06;5067890;28;20090;-84
2023/10/03 11:17:02;;;;;;;11.50;4.10;;;;;;;26.21;28.86;100997.84;5061944;28;20124;-84
2023/10/03 11:19:30;;;;;;;11.57;3.90;;;;;;;25.97;28.74;101001.56;5057621;28;20041;-83
2023/10/03 11:21:55;;;;;;;;;;;;;;;25.89;29.20;101010.41;5054907;28;20044;-85
2023/10/03 11:24:22;;;;;;;10.48;4.10;;;;;;;26.14;29.41;101011.09;5053851;28;19917;-84
2023/10/03 11:26:48;;;;;;;13.18;4.05;;;;;;;25.98;29.00;101005.88;5052848;28;20097;-83
2023/10/03 11:29:15;;;;;;;7.65;4.07;;;;;;;25.71;29.45;101012.06;5054776;28;20405;-85
2023/10/03 11:31:50;;;;;;;;;;;;;;;25.40;29.09;101012.53;5051157;28;20029;-83
2023/10/03 11:34:28;;;;;;;12.00;4.43;;;;;;;26.03;28.20;101008.56;5052596;28;19913;-84